This is the latest recevied weather packets stored in our database for station/object N8DNY-13. If no packets are shown the sender has not sent any weather packets the latest 10 day(s).
| Time | Temp. | Humidity | Pressure | Rain* | Wind** | Luminosity | Snow |
|---|---|---|---|---|---|---|---|
| 1777519919 | 7.78° C | 96% | 1016.6 hPa | 0 mm | - | 0 W/m² | - |
| 1777510869 | 8.33° C | 94% | 1015.7 hPa | 1.78 mm | - | 0 W/m² | - |
| 1777504556 | 9.44° C | 94% | 1015.1 hPa | 0 mm | - | 8 W/m² | - |
| 1777500928 | 10° C | 90% | 1015 hPa | 0 mm | - | 24 W/m² | - |
| 1777495502 | 11.11° C | 82% | 1014.6 hPa | 0 mm | - | 109 W/m² | - |
| 1777487357 | 11.11° C | 84% | 1014.9 hPa | 0 mm | - | 165 W/m² | - |
| 1777486468 | 11.11° C | 83% | 1014.9 hPa | 0 mm | - | 189 W/m² | - |
| 1777483730 | 10° C | 91% | 1015.2 hPa | 0 mm | - | 225 W/m² | - |
| 1777474689 | 11.67° C | 81% | 1015.5 hPa | 0 mm | - | 229 W/m² | - |
| 1777470190 | 11.67° C | 83% | 1015.3 hPa | 0 mm | - | 147 W/m² | - |
| 1777462928 | 11.11° C | 85% | 1016 hPa | 0 mm | - | 25 W/m² | - |
| 1777459300 | 11.11° C | 87% | 1016.7 hPa | 0 mm | - | 1 W/m² | - |
| 1777456598 | 12.22° C | 83% | 1016.1 hPa | 0 mm | - | 0 W/m² | - |
| 1777452067 | 11.11° C | 85% | 1015.5 hPa | 0 mm | - | 0 W/m² | - |
| 1777445721 | 10° C | 95% | 1016 hPa | 0 mm | - | 0 W/m² | - |
| 1777434860 | 10° C | 91% | 1017.5 hPa | 0 mm | - | 0 W/m² | - |
| 1777433957 | 10.56° C | 90% | 1017.4 hPa | 0 mm | - | 0 W/m² | - |
| 1777426707 | 12.78° C | 79% | 1018 hPa | 0 mm | - | 0 W/m² | - |
| 1777425818 | 13.33° C | 77% | 1017.5 hPa | 0 mm | - | 0 W/m² | - |
| 1777416689 | 17.22° C | 66% | 1017.9 hPa | 0 mm | - | 51 W/m² | - |
| 1777415798 | 17.78° C | 65% | 1017 hPa | 0 mm | - | 84 W/m² | - |
| 1777413058 | 18.89° C | 62% | 1016.3 hPa | 0 mm | - | 136 W/m² | - |
| 1777411238 | 18.33° C | 64% | 1016.7 hPa | 0 mm | - | 173 W/m² | - |
| 1777408508 | 20° C | 59% | 1016.3 hPa | 0 mm | - | 165 W/m² | - |
| 1777406702 | 19.44° C | 63% | 1016.5 hPa | 0 mm | - | 290 W/m² | - |
* Rain latest hour (hover to see other rain measurements)
** Current wind speed in m/s (hover to see current wind gust speed)